sensor_id;sensor_type;location;lat;lon;timestamp;P1;durP1;ratioP1;P2;durP2;ratioP2
16391;SDS011;8305;-33.882;151.134;2023-01-30T00:02:18;1.67;;;1.58;;
16391;SDS011;8305;-33.882;151.134;2023-01-30T00:04:49;1.75;;;1.50;;
16391;SDS011;8305;-33.882;151.134;2023-01-30T00:07:20;1.70;;;1.60;;
16391;SDS011;8305;-33.882;151.134;2023-01-30T00:09:51;2.88;;;1.42;;
16391;SDS011;8305;-33.882;151.134;2023-01-30T00:12:24;8.38;;;3.28;;
16391;SDS011;8305;-33.882;151.134;2023-01-30T00:14:55;3.58;;;1.40;;
16391;SDS011;8305;-33.882;151.134;2023-01-30T00:17:25;1.40;;;1.30;;
16391;SDS011;8305;-33.882;151.134;2023-01-30T00:19:56;2.10;;;1.50;;
16391;SDS011;8305;-33.882;151.134;2023-01-30T00:22:27;2.35;;;1.58;;
16391;SDS011;8305;-33.882;151.134;2023-01-30T00:24:58;3.05;;;1.52;;
16391;SDS011;8305;-33.882;151.134;2023-01-30T00:27:31;2.97;;;1.60;;
16391;SDS011;8305;-33.882;151.134;2023-01-30T00:30:02;1.50;;;1.40;;
16391;SDS011;8305;-33.882;151.134;2023-01-30T00:32:33;1.90;;;1.50;;
16391;SDS011;8305;-33.882;151.134;2023-01-30T00:35:05;1.70;;;1.50;;
16391;SDS011;8305;-33.882;151.134;2023-01-30T00:37:36;1.42;;;1.33;;
16391;SDS011;8305;-33.882;151.134;2023-01-30T00:40:08;1.98;;;1.30;;
16391;SDS011;8305;-33.882;151.134;2023-01-30T00:42:41;1.60;;;1.40;;
16391;SDS011;8305;-33.882;151.134;2023-01-30T00:45:28;1.88;;;1.35;;
16391;SDS011;8305;-33.882;151.134;2023-01-30T00:48:15;2.65;;;1.85;;
16391;SDS011;8305;-33.882;151.134;2023-01-30T00:50:46;1.50;;;1.40;;
16391;SDS011;8305;-33.882;151.134;2023-01-30T00:53:17;2.30;;;1.20;;
16391;SDS011;8305;-33.882;151.134;2023-01-30T00:55:49;1.45;;;1.20;;
16391;SDS011;8305;-33.882;151.134;2023-01-30T00:58:22;2.10;;;1.42;;
16391;SDS011;8305;-33.882;151.134;2023-01-30T01:00:54;1.77;;;1.48;;
16391;SDS011;8305;-33.882;151.134;2023-01-30T01:03:25;2.15;;;1.73;;
16391;SDS011;8305;-33.882;151.134;2023-01-30T01:05:55;3.97;;;2.13;;
16391;SDS011;8305;-33.882;151.134;2023-01-30T01:08:27;6.85;;;1.80;;
16391;SDS011;8305;-33.882;151.134;2023-01-30T01:10:58;1.70;;;1.30;;
16391;SDS011;8305;-33.882;151.134;2023-01-30T01:13:30;2.47;;;1.58;;
16391;SDS011;8305;-33.882;151.134;2023-01-30T01:16:01;2.75;;;1.30;;
16391;SDS011;8305;-33.882;151.134;2023-01-30T01:18:32;2.97;;;1.48;;
16391;SDS011;8305;-33.882;151.134;2023-01-30T01:21:03;2.22;;;1.33;;
16391;SDS011;8305;-33.882;151.134;2023-01-30T01:23:34;1.40;;;1.30;;
16391;SDS011;8305;-33.882;151.134;2023-01-30T01:26:05;1.77;;;1.25;;
16391;SDS011;8305;-33.882;151.134;2023-01-30T01:28:38;1.70;;;1.30;;
16391;SDS011;8305;-33.882;151.134;2023-01-30T01:31:09;3.20;;;1.83;;
16391;SDS011;8305;-33.882;151.134;2023-01-30T01:33:41;5.95;;;2.00;;
16391;SDS011;8305;-33.882;151.134;2023-01-30T01:36:12;3.42;;;1.50;;
16391;SDS011;8305;-33.882;151.134;2023-01-30T01:38:43;1.48;;;1.20;;
16391;SDS011;8305;-33.882;151.134;2023-01-30T01:41:15;2.15;;;1.27;;
16391;SDS011;8305;-33.882;151.134;2023-01-30T01:44:03;1.27;;;1.08;;
16391;SDS011;8305;-33.882;151.134;2023-01-30T01:46:35;2.80;;;1.38;;
16391;SDS011;8305;-33.882;151.134;2023-01-30T01:49:12;1.88;;;1.00;;
16391;SDS011;8305;-33.882;151.134;2023-01-30T01:51:48;1.30;;;1.15;;
16391;SDS011;8305;-33.882;151.134;2023-01-30T01:54:27;2.83;;;1.00;;
16391;SDS011;8305;-33.882;151.134;2023-01-30T01:57:02;2.00;;;1.20;;
16391;SDS011;8305;-33.882;151.134;2023-01-30T01:59:41;1.95;;;1.20;;
16391;SDS011;8305;-33.882;151.134;2023-01-30T02:02:15;1.20;;;1.10;;
16391;SDS011;8305;-33.882;151.134;2023-01-30T02:04:47;1.13;;;1.00;;
16391;SDS011;8305;-33.882;151.134;2023-01-30T02:07:33;1.30;;;1.00;;
16391;SDS011;8305;-33.882;151.134;2023-01-30T02:10:06;1.10;;;1.00;;
16391;SDS011;8305;-33.882;151.134;2023-01-30T02:12:42;3.47;;;1.40;;
16391;SDS011;8305;-33.882;151.134;2023-01-30T02:15:18;4.93;;;1.80;;
16391;SDS011;8305;-33.882;151.134;2023-01-30T02:17:49;1.38;;;1.27;;
16391;SDS011;8305;-33.882;151.134;2023-01-30T02:20:22;1.02;;;0.93;;
16391;SDS011;8305;-33.882;151.134;2023-01-30T02:23:09;1.95;;;1.02;;
16391;SDS011;8305;-33.882;151.134;2023-01-30T02:26:33;1.13;;;1.02;;
16391;SDS011;8305;-33.882;151.134;2023-01-30T02:32:40;1.10;;;1.00;;
16391;SDS011;8305;-33.882;151.134;2023-01-30T02:35:20;1.38;;;1.20;;
16391;SDS011;8305;-33.882;151.134;2023-01-30T02:38:00;1.38;;;1.20;;
16391;SDS011;8305;-33.882;151.134;2023-01-30T02:40:43;1.30;;;1.20;;
16391;SDS011;8305;-33.882;151.134;2023-01-30T02:43:26;1.70;;;1.30;;
16391;SDS011;8305;-33.882;151.134;2023-01-30T02:46:04;1.38;;;1.27;;
16391;SDS011;8305;-33.882;151.134;2023-01-30T02:48:42;1.50;;;1.20;;
16391;SDS011;8305;-33.882;151.134;2023-01-30T02:51:16;1.15;;;1.08;;
16391;SDS011;8305;-33.882;151.134;2023-01-30T02:53:50;2.35;;;1.25;;
16391;SDS011;8305;-33.882;151.134;2023-01-30T02:56:21;2.13;;;1.40;;
16391;SDS011;8305;-33.882;151.134;2023-01-30T02:58:54;2.15;;;1.10;;
16391;SDS011;8305;-33.882;151.134;2023-01-30T03:01:36;1.30;;;1.20;;
16391;SDS011;8305;-33.882;151.134;2023-01-30T03:04:34;1.33;;;1.20;;
16391;SDS011;8305;-33.882;151.134;2023-01-30T03:07:26;2.08;;;1.48;;
16391;SDS011;8305;-33.882;151.134;2023-01-30T03:10:06;1.40;;;1.10;;
16391;SDS011;8305;-33.882;151.134;2023-01-30T03:12:48;1.70;;;1.25;;
16391;SDS011;8305;-33.882;151.134;2023-01-30T03:15:24;1.30;;;1.20;;
16391;SDS011;8305;-33.882;151.134;2023-01-30T03:17:59;1.17;;;1.08;;
16391;SDS011;8305;-33.882;151.134;2023-01-30T03:20:33;2.63;;;1.48;;
16391;SDS011;8305;-33.882;151.134;2023-01-30T03:23:06;2.50;;;1.42;;
16391;SDS011;8305;-33.882;151.134;2023-01-30T03:25:38;1.30;;;1.20;;
16391;SDS011;8305;-33.882;151.134;2023-01-30T03:28:11;3.00;;;1.70;;
16391;SDS011;8305;-33.882;151.134;2023-01-30T03:30:49;1.30;;;1.20;;
16391;SDS011;8305;-33.882;151.134;2023-01-30T03:33:19;2.17;;;1.40;;
16391;SDS011;8305;-33.882;151.134;2023-01-30T03:35:53;2.53;;;1.60;;
16391;SDS011;8305;-33.882;151.134;2023-01-30T03:38:24;2.33;;;1.30;;
16391;SDS011;8305;-33.882;151.134;2023-01-30T03:40:55;1.80;;;1.50;;
16391;SDS011;8305;-33.882;151.134;2023-01-30T03:43:26;2.38;;;1.40;;
16391;SDS011;8305;-33.882;151.134;2023-01-30T03:45:57;1.85;;;1.65;;
16391;SDS011;8305;-33.882;151.134;2023-01-30T03:48:28;1.50;;;1.40;;
16391;SDS011;8305;-33.882;151.134;2023-01-30T03:51:01;2.72;;;1.50;;
16391;SDS011;8305;-33.882;151.134;2023-01-30T03:53:33;2.78;;;1.58;;
16391;SDS011;8305;-33.882;151.134;2023-01-30T03:56:04;1.52;;;1.42;;
16391;SDS011;8305;-33.882;151.134;2023-01-30T03:58:36;1.70;;;1.50;;
16391;SDS011;8305;-33.882;151.134;2023-01-30T04:01:07;1.85;;;1.60;;
16391;SDS011;8305;-33.882;151.134;2023-01-30T04:03:37;1.75;;;1.65;;
16391;SDS011;8305;-33.882;151.134;2023-01-30T04:06:10;1.98;;;1.52;;
16391;SDS011;8305;-33.882;151.134;2023-01-30T04:08:41;1.85;;;1.40;;
16391;SDS011;8305;-33.882;151.134;2023-01-30T04:11:12;1.65;;;1.50;;
16391;SDS011;8305;-33.882;151.134;2023-01-30T04:13:44;3.25;;;1.73;;
16391;SDS011;8305;-33.882;151.134;2023-01-30T04:16:16;1.73;;;1.58;;
16391;SDS011;8305;-33.882;151.134;2023-01-30T04:18:48;1.90;;;1.70;;
16391;SDS011;8305;-33.882;151.134;2023-01-30T04:21:20;1.98;;;1.70;;
16391;SDS011;8305;-33.882;151.134;2023-01-30T04:23:51;2.88;;;1.77;;
16391;SDS011;8305;-33.882;151.134;2023-01-30T04:26:22;2.03;;;1.80;;
16391;SDS011;8305;-33.882;151.134;2023-01-30T04:28:53;1.83;;;1.73;;
16391;SDS011;8305;-33.882;151.134;2023-01-30T04:31:24;3.08;;;2.55;;
16391;SDS011;8305;-33.882;151.134;2023-01-30T04:33:55;1.70;;;1.60;;
16391;SDS011;8305;-33.882;151.134;2023-01-30T04:36:27;1.90;;;1.60;;
16391;SDS011;8305;-33.882;151.134;2023-01-30T04:38:58;3.88;;;1.50;;
16391;SDS011;8305;-33.882;151.134;2023-01-30T04:41:29;1.83;;;1.55;;
16391;SDS011;8305;-33.882;151.134;2023-01-30T04:44:00;1.70;;;1.60;;
16391;SDS011;8305;-33.882;151.134;2023-01-30T04:46:33;2.10;;;1.70;;
16391;SDS011;8305;-33.882;151.134;2023-01-30T04:49:04;1.73;;;1.63;;
16391;SDS011;8305;-33.882;151.134;2023-01-30T04:51:36;3.08;;;1.60;;
16391;SDS011;8305;-33.882;151.134;2023-01-30T04:54:07;4.20;;;1.80;;
16391;SDS011;8305;-33.882;151.134;2023-01-30T04:56:38;2.95;;;1.60;;
16391;SDS011;8305;-33.882;151.134;2023-01-30T04:59:09;1.75;;;1.65;;
16391;SDS011;8305;-33.882;151.134;2023-01-30T05:01:40;2.67;;;1.80;;
16391;SDS011;8305;-33.882;151.134;2023-01-30T05:04:11;2.10;;;1.80;;
16391;SDS011;8305;-33.882;151.134;2023-01-30T05:06:44;1.85;;;1.67;;
16391;SDS011;8305;-33.882;151.134;2023-01-30T05:09:15;2.00;;;1.80;;
16391;SDS011;8305;-33.882;151.134;2023-01-30T05:11:46;2.58;;;1.90;;
16391;SDS011;8305;-33.882;151.134;2023-01-30T05:14:17;4.70;;;2.00;;
16391;SDS011;8305;-33.882;151.134;2023-01-30T05:16:48;3.40;;;1.95;;
16391;SDS011;8305;-33.882;151.134;2023-01-30T05:19:19;2.42;;;1.95;;
16391;SDS011;8305;-33.882;151.134;2023-01-30T05:21:52;2.00;;;1.80;;
16391;SDS011;8305;-33.882;151.134;2023-01-30T05:24:23;4.07;;;2.10;;
16391;SDS011;8305;-33.882;151.134;2023-01-30T05:26:54;4.15;;;2.10;;
16391;SDS011;8305;-33.882;151.134;2023-01-30T05:29:24;2.45;;;1.95;;
16391;SDS011;8305;-33.882;151.134;2023-01-30T05:31:55;2.80;;;2.10;;
16391;SDS011;8305;-33.882;151.134;2023-01-30T05:34:26;3.47;;;2.10;;
16391;SDS011;8305;-33.882;151.134;2023-01-30T05:36:59;6.53;;;2.90;;
16391;SDS011;8305;-33.882;151.134;2023-01-30T05:39:29;3.65;;;2.50;;
16391;SDS011;8305;-33.882;151.134;2023-01-30T05:42:00;4.80;;;2.75;;
16391;SDS011;8305;-33.882;151.134;2023-01-30T05:44:31;5.60;;;2.95;;
16391;SDS011;8305;-33.882;151.134;2023-01-30T05:47:02;7.30;;;3.22;;
16391;SDS011;8305;-33.882;151.134;2023-01-30T05:49:33;4.10;;;3.35;;
16391;SDS011;8305;-33.882;151.134;2023-01-30T05:52:05;5.22;;;3.05;;
16391;SDS011;8305;-33.882;151.134;2023-01-30T05:54:36;5.85;;;3.22;;
16391;SDS011;8305;-33.882;151.134;2023-01-30T05:57:07;7.78;;;3.42;;
16391;SDS011;8305;-33.882;151.134;2023-01-30T05:59:38;5.40;;;3.30;;
16391;SDS011;8305;-33.882;151.134;2023-01-30T06:02:09;5.18;;;3.40;;
16391;SDS011;8305;-33.882;151.134;2023-01-30T06:04:40;4.50;;;3.40;;
16391;SDS011;8305;-33.882;151.134;2023-01-30T06:07:13;5.88;;;3.30;;
16391;SDS011;8305;-33.882;151.134;2023-01-30T06:09:44;7.20;;;3.80;;
16391;SDS011;8305;-33.882;151.134;2023-01-30T06:12:15;4.68;;;3.42;;
16391;SDS011;8305;-33.882;151.134;2023-01-30T06:14:45;4.03;;;2.97;;
16391;SDS011;8305;-33.882;151.134;2023-01-30T06:17:16;6.03;;;2.97;;
16391;SDS011;8305;-33.882;151.134;2023-01-30T06:19:47;7.18;;;2.78;;
16391;SDS011;8305;-33.882;151.134;2023-01-30T06:22:20;7.43;;;2.60;;
16391;SDS011;8305;-33.882;151.134;2023-01-30T06:24:50;7.32;;;2.28;;
16391;SDS011;8305;-33.882;151.134;2023-01-30T06:27:21;7.47;;;2.40;;
16391;SDS011;8305;-33.882;151.134;2023-01-30T06:29:52;4.25;;;2.08;;
16391;SDS011;8305;-33.882;151.134;2023-01-30T06:32:23;8.95;;;2.10;;
16391;SDS011;8305;-33.882;151.134;2023-01-30T06:34:54;6.20;;;1.80;;
16391;SDS011;8305;-33.882;151.134;2023-01-30T06:37:26;6.35;;;1.98;;
16391;SDS011;8305;-33.882;151.134;2023-01-30T06:39:57;5.20;;;1.90;;
16391;SDS011;8305;-33.882;151.134;2023-01-30T06:42:28;4.95;;;1.50;;
16391;SDS011;8305;-33.882;151.134;2023-01-30T06:44:59;4.05;;;1.40;;
16391;SDS011;8305;-33.882;151.134;2023-01-30T06:47:30;4.38;;;1.50;;
16391;SDS011;8305;-33.882;151.134;2023-01-30T06:50:01;4.32;;;1.88;;
16391;SDS011;8305;-33.882;151.134;2023-01-30T06:52:34;5.32;;;2.03;;
16391;SDS011;8305;-33.882;151.134;2023-01-30T06:55:10;4.15;;;1.80;;
16391;SDS011;8305;-33.882;151.134;2023-01-30T06:57:42;4.82;;;1.17;;
16391;SDS011;8305;-33.882;151.134;2023-01-30T07:00:14;1.85;;;1.00;;
16391;SDS011;8305;-33.882;151.134;2023-01-30T07:02:46;2.47;;;1.00;;
16391;SDS011;8305;-33.882;151.134;2023-01-30T07:05:17;2.55;;;0.98;;
16391;SDS011;8305;-33.882;151.134;2023-01-30T07:07:49;3.00;;;0.95;;
16391;SDS011;8305;-33.882;151.134;2023-01-30T07:10:20;1.92;;;0.90;;
16391;SDS011;8305;-33.882;151.134;2023-01-30T07:12:52;1.92;;;0.85;;
16391;SDS011;8305;-33.882;151.134;2023-01-30T07:15:23;1.35;;;0.80;;
16391;SDS011;8305;-33.882;151.134;2023-01-30T07:17:54;1.15;;;0.75;;
16391;SDS011;8305;-33.882;151.134;2023-01-30T07:20:25;1.95;;;0.60;;
16391;SDS011;8305;-33.882;151.134;2023-01-30T07:22:58;1.77;;;0.60;;
16391;SDS011;8305;-33.882;151.134;2023-01-30T07:25:30;3.03;;;0.38;;
16391;SDS011;8305;-33.882;151.134;2023-01-30T07:28:01;1.40;;;0.40;;
16391;SDS011;8305;-33.882;151.134;2023-01-30T07:30:33;1.08;;;0.40;;
16391;SDS011;8305;-33.882;151.134;2023-01-30T07:33:04;2.22;;;0.70;;
16391;SDS011;8305;-33.882;151.134;2023-01-30T07:35:35;1.08;;;0.38;;
16391;SDS011;8305;-33.882;151.134;2023-01-30T07:38:08;1.60;;;0.40;;
16391;SDS011;8305;-33.882;151.134;2023-01-30T07:40:39;2.70;;;0.65;;
16391;SDS011;8305;-33.882;151.134;2023-01-30T07:43:10;3.50;;;0.70;;
16391;SDS011;8305;-33.882;151.134;2023-01-30T07:45:42;1.58;;;0.57;;
16391;SDS011;8305;-33.882;151.134;2023-01-30T07:48:14;1.27;;;0.60;;
16391;SDS011;8305;-33.882;151.134;2023-01-30T07:50:46;2.22;;;0.70;;
16391;SDS011;8305;-33.882;151.134;2023-01-30T07:53:18;1.17;;;0.70;;
16391;SDS011;8305;-33.882;151.134;2023-01-30T07:55:50;3.13;;;0.80;;
16391;SDS011;8305;-33.882;151.134;2023-01-30T07:58:21;2.30;;;0.57;;
16391;SDS011;8305;-33.882;151.134;2023-01-30T08:00:53;3.08;;;0.60;;
16391;SDS011;8305;-33.882;151.134;2023-01-30T08:03:24;2.70;;;0.70;;
16391;SDS011;8305;-33.882;151.134;2023-01-30T08:05:55;3.45;;;0.68;;
16391;SDS011;8305;-33.882;151.134;2023-01-30T08:08:28;3.97;;;0.80;;
16391;SDS011;8305;-33.882;151.134;2023-01-30T08:10:59;1.63;;;0.60;;
16391;SDS011;8305;-33.882;151.134;2023-01-30T08:13:29;2.50;;;0.75;;
16391;SDS011;8305;-33.882;151.134;2023-01-30T08:16:01;2.65;;;0.63;;
16391;SDS011;8305;-33.882;151.134;2023-01-30T08:18:33;2.55;;;0.73;;
16391;SDS011;8305;-33.882;151.134;2023-01-30T08:21:04;3.00;;;0.80;;
16391;SDS011;8305;-33.882;151.134;2023-01-30T08:23:37;4.22;;;0.80;;
16391;SDS011;8305;-33.882;151.134;2023-01-30T08:26:08;5.85;;;0.88;;
16391;SDS011;8305;-33.882;151.134;2023-01-30T08:28:39;5.22;;;1.00;;
16391;SDS011;8305;-33.882;151.134;2023-01-30T08:31:10;4.07;;;0.90;;
16391;SDS011;8305;-33.882;151.134;2023-01-30T08:33:42;6.93;;;1.05;;
16391;SDS011;8305;-33.882;151.134;2023-01-30T08:36:13;4.57;;;0.75;;
16391;SDS011;8305;-33.882;151.134;2023-01-30T08:38:45;6.78;;;0.80;;
16391;SDS011;8305;-33.882;151.134;2023-01-30T08:41:16;3.95;;;0.95;;
16391;SDS011;8305;-33.882;151.134;2023-01-30T08:43:47;6.28;;;0.80;;
16391;SDS011;8305;-33.882;151.134;2023-01-30T08:46:18;6.47;;;1.00;;
16391;SDS011;8305;-33.882;151.134;2023-01-30T08:48:49;3.13;;;0.70;;
16391;SDS011;8305;-33.882;151.134;2023-01-30T08:51:20;3.25;;;0.70;;
16391;SDS011;8305;-33.882;151.134;2023-01-30T08:53:53;2.95;;;0.60;;
16391;SDS011;8305;-33.882;151.134;2023-01-30T08:56:24;4.13;;;0.68;;
16391;SDS011;8305;-33.882;151.134;2023-01-30T08:58:55;2.33;;;0.60;;
16391;SDS011;8305;-33.882;151.134;2023-01-30T09:01:26;2.35;;;0.60;;
16391;SDS011;8305;-33.882;151.134;2023-01-30T09:03:57;4.80;;;0.60;;
16391;SDS011;8305;-33.882;151.134;2023-01-30T09:06:28;3.72;;;0.70;;
16391;SDS011;8305;-33.882;151.134;2023-01-30T09:09:03;4.22;;;0.90;;
16391;SDS011;8305;-33.882;151.134;2023-01-30T09:11:37;1.23;;;0.75;;
16391;SDS011;8305;-33.882;151.134;2023-01-30T09:14:08;6.03;;;1.17;;
16391;SDS011;8305;-33.882;151.134;2023-01-30T09:16:39;1.55;;;0.63;;
16391;SDS011;8305;-33.882;151.134;2023-01-30T09:19:10;4.53;;;0.70;;
16391;SDS011;8305;-33.882;151.134;2023-01-30T09:21:41;2.83;;;0.95;;
16391;SDS011;8305;-33.882;151.134;2023-01-30T09:24:14;4.10;;;0.80;;
16391;SDS011;8305;-33.882;151.134;2023-01-30T09:26:45;4.38;;;1.00;;
16391;SDS011;8305;-33.882;151.134;2023-01-30T09:29:16;5.22;;;1.10;;
16391;SDS011;8305;-33.882;151.134;2023-01-30T09:31:48;6.50;;;1.15;;
16391;SDS011;8305;-33.882;151.134;2023-01-30T09:34:19;3.50;;;1.13;;
16391;SDS011;8305;-33.882;151.134;2023-01-30T09:36:52;6.70;;;1.45;;
16391;SDS011;8305;-33.882;151.134;2023-01-30T09:39:27;8.90;;;1.50;;
16391;SDS011;8305;-33.882;151.134;2023-01-30T09:42:04;6.47;;;1.98;;
16391;SDS011;8305;-33.882;151.134;2023-01-30T09:45:07;5.63;;;1.48;;
16391;SDS011;8305;-33.882;151.134;2023-01-30T09:47:52;7.55;;;2.20;;
16391;SDS011;8305;-33.882;151.134;2023-01-30T09:50:41;6.28;;;1.88;;
16391;SDS011;8305;-33.882;151.134;2023-01-30T09:53:28;8.60;;;1.80;;
16391;SDS011;8305;-33.882;151.134;2023-01-30T09:56:06;11.95;;;1.92;;
16391;SDS011;8305;-33.882;151.134;2023-01-30T09:58:40;4.95;;;1.55;;
16391;SDS011;8305;-33.882;151.134;2023-01-30T10:01:15;4.88;;;1.70;;
16391;SDS011;8305;-33.882;151.134;2023-01-30T10:03:56;6.82;;;1.95;;
16391;SDS011;8305;-33.882;151.134;2023-01-30T10:06:35;8.77;;;2.03;;
16391;SDS011;8305;-33.882;151.134;2023-01-30T10:09:16;4.15;;;2.00;;
16391;SDS011;8305;-33.882;151.134;2023-01-30T10:12:00;5.72;;;1.88;;
16391;SDS011;8305;-33.882;151.134;2023-01-30T10:14:46;6.75;;;2.47;;
16391;SDS011;8305;-33.882;151.134;2023-01-30T10:17:33;9.18;;;2.80;;
16391;SDS011;8305;-33.882;151.134;2023-01-30T10:20:19;9.13;;;2.67;;
16391;SDS011;8305;-33.882;151.134;2023-01-30T10:23:01;8.45;;;2.85;;
16391;SDS011;8305;-33.882;151.134;2023-01-30T10:25:45;12.55;;;3.42;;
16391;SDS011;8305;-33.882;151.134;2023-01-30T10:28:21;10.70;;;2.78;;
16391;SDS011;8305;-33.882;151.134;2023-01-30T10:30:58;7.85;;;2.75;;
16391;SDS011;8305;-33.882;151.134;2023-01-30T10:33:33;7.90;;;3.00;;
16391;SDS011;8305;-33.882;151.134;2023-01-30T10:36:10;11.15;;;3.00;;
16391;SDS011;8305;-33.882;151.134;2023-01-30T10:38:45;8.55;;;2.50;;
16391;SDS011;8305;-33.882;151.134;2023-01-30T10:41:20;6.60;;;2.50;;
16391;SDS011;8305;-33.882;151.134;2023-01-30T10:43:59;8.98;;;2.28;;
16391;SDS011;8305;-33.882;151.134;2023-01-30T10:46:46;6.75;;;2.35;;
16391;SDS011;8305;-33.882;151.134;2023-01-30T10:49:37;8.45;;;2.53;;
16391;SDS011;8305;-33.882;151.134;2023-01-30T10:52:17;7.55;;;2.08;;
16391;SDS011;8305;-33.882;151.134;2023-01-30T10:54:58;7.25;;;2.15;;
16391;SDS011;8305;-33.882;151.134;2023-01-30T10:57:39;7.25;;;2.00;;
16391;SDS011;8305;-33.882;151.134;2023-01-30T11:00:21;4.32;;;1.80;;
16391;SDS011;8305;-33.882;151.134;2023-01-30T11:03:03;5.35;;;2.05;;
16391;SDS011;8305;-33.882;151.134;2023-01-30T11:05:47;4.93;;;1.88;;
16391;SDS011;8305;-33.882;151.134;2023-01-30T11:08:20;8.63;;;2.10;;
16391;SDS011;8305;-33.882;151.134;2023-01-30T11:10:53;7.40;;;2.22;;
16391;SDS011;8305;-33.882;151.134;2023-01-30T11:13:29;8.32;;;2.30;;
16391;SDS011;8305;-33.882;151.134;2023-01-30T11:16:04;8.50;;;2.10;;
16391;SDS011;8305;-33.882;151.134;2023-01-30T11:18:43;7.68;;;2.30;;
16391;SDS011;8305;-33.882;151.134;2023-01-30T11:21:18;5.60;;;2.00;;
16391;SDS011;8305;-33.882;151.134;2023-01-30T11:23:53;7.95;;;2.20;;
16391;SDS011;8305;-33.882;151.134;2023-01-30T11:26:28;10.00;;;2.17;;
16391;SDS011;8305;-33.882;151.134;2023-01-30T11:29:14;3.30;;;1.83;;
16391;SDS011;8305;-33.882;151.134;2023-01-30T11:31:54;7.03;;;2.17;;
16391;SDS011;8305;-33.882;151.134;2023-01-30T11:34:29;8.50;;;1.90;;
16391;SDS011;8305;-33.882;151.134;2023-01-30T11:37:13;10.82;;;2.20;;
16391;SDS011;8305;-33.882;151.134;2023-01-30T11:39:53;5.85;;;1.83;;
16391;SDS011;8305;-33.882;151.134;2023-01-30T11:42:25;8.95;;;1.77;;
16391;SDS011;8305;-33.882;151.134;2023-01-30T11:44:59;7.10;;;1.90;;
16391;SDS011;8305;-33.882;151.134;2023-01-30T11:47:32;6.63;;;1.90;;
16391;SDS011;8305;-33.882;151.134;2023-01-30T11:50:04;6.00;;;1.70;;
16391;SDS011;8305;-33.882;151.134;2023-01-30T11:52:43;8.45;;;1.60;;
16391;SDS011;8305;-33.882;151.134;2023-01-30T11:55:15;8.43;;;1.80;;
16391;SDS011;8305;-33.882;151.134;2023-01-30T11:57:48;8.38;;;1.80;;
16391;SDS011;8305;-33.882;151.134;2023-01-30T12:00:21;8.65;;;1.90;;
16391;SDS011;8305;-33.882;151.134;2023-01-30T12:02:56;5.32;;;2.00;;
16391;SDS011;8305;-33.882;151.134;2023-01-30T12:05:35;8.60;;;2.10;;
16391;SDS011;8305;-33.882;151.134;2023-01-30T12:08:12;9.93;;;2.60;;
16391;SDS011;8305;-33.882;151.134;2023-01-30T12:10:52;10.88;;;2.40;;
16391;SDS011;8305;-33.882;151.134;2023-01-30T12:13:28;9.82;;;2.50;;
16391;SDS011;8305;-33.882;151.134;2023-01-30T12:18:53;10.52;;;2.40;;
16391;SDS011;8305;-33.882;151.134;2023-01-30T12:21:35;5.75;;;2.08;;
16391;SDS011;8305;-33.882;151.134;2023-01-30T12:24:16;4.93;;;2.10;;
16391;SDS011;8305;-33.882;151.134;2023-01-30T12:26:55;8.75;;;2.20;;
16391;SDS011;8305;-33.882;151.134;2023-01-30T12:29:30;9.30;;;2.30;;
16391;SDS011;8305;-33.882;151.134;2023-01-30T12:32:05;7.53;;;2.25;;
16391;SDS011;8305;-33.882;151.134;2023-01-30T12:34:43;11.30;;;2.40;;
16391;SDS011;8305;-33.882;151.134;2023-01-30T12:37:20;9.23;;;2.50;;
16391;SDS011;8305;-33.882;151.134;2023-01-30T12:40:08;6.57;;;2.20;;
16391;SDS011;8305;-33.882;151.134;2023-01-30T12:42:59;7.72;;;2.20;;
16391;SDS011;8305;-33.882;151.134;2023-01-30T12:45:54;10.07;;;2.40;;
16391;SDS011;8305;-33.882;151.134;2023-01-30T12:48:35;8.98;;;2.30;;
16391;SDS011;8305;-33.882;151.134;2023-01-30T12:51:30;12.88;;;2.42;;
16391;SDS011;8305;-33.882;151.134;2023-01-30T12:54:10;9.60;;;2.35;;
16391;SDS011;8305;-33.882;151.134;2023-01-30T12:56:55;11.75;;;2.53;;
16391;SDS011;8305;-33.882;151.134;2023-01-30T12:59:33;7.53;;;1.98;;
16391;SDS011;8305;-33.882;151.134;2023-01-30T13:02:18;10.10;;;2.28;;
16391;SDS011;8305;-33.882;151.134;2023-01-30T13:04:59;10.00;;;2.30;;
16391;SDS011;8305;-33.882;151.134;2023-01-30T13:07:53;6.90;;;2.10;;
16391;SDS011;8305;-33.882;151.134;2023-01-30T13:10:41;9.25;;;2.30;;
16391;SDS011;8305;-33.882;151.134;2023-01-30T13:13:17;8.00;;;2.20;;
16391;SDS011;8305;-33.882;151.134;2023-01-30T13:15:53;8.07;;;2.50;;
16391;SDS011;8305;-33.882;151.134;2023-01-30T13:18:33;7.20;;;2.03;;
16391;SDS011;8305;-33.882;151.134;2023-01-30T13:21:12;8.27;;;2.50;;
16391;SDS011;8305;-33.882;151.134;2023-01-30T13:23:51;6.70;;;2.05;;
16391;SDS011;8305;-33.882;151.134;2023-01-30T13:26:33;5.40;;;2.30;;
16391;SDS011;8305;-33.882;151.134;2023-01-30T13:29:10;4.55;;;2.33;;
16391;SDS011;8305;-33.882;151.134;2023-01-30T13:31:45;5.88;;;2.30;;
16391;SDS011;8305;-33.882;151.134;2023-01-30T13:34:24;6.72;;;2.42;;
16391;SDS011;8305;-33.882;151.134;2023-01-30T13:37:05;9.43;;;2.50;;
16391;SDS011;8305;-33.882;151.134;2023-01-30T13:39:42;8.38;;;2.28;;
16391;SDS011;8305;-33.882;151.134;2023-01-30T13:42:19;4.40;;;2.22;;
16391;SDS011;8305;-33.882;151.134;2023-01-30T13:44:55;9.85;;;2.50;;
16391;SDS011;8305;-33.882;151.134;2023-01-30T13:47:33;8.48;;;2.70;;
16391;SDS011;8305;-33.882;151.134;2023-01-30T13:50:19;5.18;;;2.13;;
16391;SDS011;8305;-33.882;151.134;2023-01-30T13:53:03;7.10;;;2.55;;
16391;SDS011;8305;-33.882;151.134;2023-01-30T13:55:41;5.15;;;1.77;;
16391;SDS011;8305;-33.882;151.134;2023-01-30T13:58:25;7.68;;;2.28;;
16391;SDS011;8305;-33.882;151.134;2023-01-30T14:01:09;10.57;;;2.55;;
16391;SDS011;8305;-33.882;151.134;2023-01-30T14:03:40;9.35;;;2.30;;
16391;SDS011;8305;-33.882;151.134;2023-01-30T14:06:12;8.23;;;2.20;;
16391;SDS011;8305;-33.882;151.134;2023-01-30T14:08:57;7.97;;;2.25;;
16391;SDS011;8305;-33.882;151.134;2023-01-30T14:11:36;12.48;;;2.20;;
16391;SDS011;8305;-33.882;151.134;2023-01-30T14:14:25;8.50;;;2.10;;
16391;SDS011;8305;-33.882;151.134;2023-01-30T14:17:07;8.77;;;2.30;;
16391;SDS011;8305;-33.882;151.134;2023-01-30T14:19:40;7.90;;;2.20;;
16391;SDS011;8305;-33.882;151.134;2023-01-30T14:22:19;8.50;;;2.10;;
16391;SDS011;8305;-33.882;151.134;2023-01-30T14:40:39;6.30;;;2.05;;
16391;SDS011;8305;-33.882;151.134;2023-01-30T14:43:33;4.95;;;2.13;;
16391;SDS011;8305;-33.882;151.134;2023-01-30T14:46:05;6.00;;;1.83;;
16391;SDS011;8305;-33.882;151.134;2023-01-30T14:49:04;9.45;;;1.80;;
16391;SDS011;8305;-33.882;151.134;2023-01-30T14:51:57;7.15;;;2.10;;
16391;SDS011;8305;-33.882;151.134;2023-01-30T14:54:30;5.20;;;1.98;;
16391;SDS011;8305;-33.882;151.134;2023-01-30T14:57:05;7.22;;;1.77;;
16391;SDS011;8305;-33.882;151.134;2023-01-30T14:59:47;6.80;;;1.70;;
16391;SDS011;8305;-33.882;151.134;2023-01-30T15:02:24;7.50;;;2.00;;
16391;SDS011;8305;-33.882;151.134;2023-01-30T15:05:01;6.68;;;1.98;;
16391;SDS011;8305;-33.882;151.134;2023-01-30T15:07:39;6.45;;;1.75;;
16391;SDS011;8305;-33.882;151.134;2023-01-30T15:10:19;6.05;;;1.73;;
16391;SDS011;8305;-33.882;151.134;2023-01-30T15:13:03;7.03;;;1.92;;
16391;SDS011;8305;-33.882;151.134;2023-01-30T15:15:49;4.20;;;1.75;;
16391;SDS011;8305;-33.882;151.134;2023-01-30T15:21:36;3.85;;;1.77;;
16391;SDS011;8305;-33.882;151.134;2023-01-30T15:24:19;7.13;;;1.83;;
16391;SDS011;8305;-33.882;151.134;2023-01-30T15:27:11;6.20;;;2.00;;
16391;SDS011;8305;-33.882;151.134;2023-01-30T15:32:43;5.95;;;2.15;;
16391;SDS011;8305;-33.882;151.134;2023-01-30T15:35:21;7.55;;;1.92;;
16391;SDS011;8305;-33.882;151.134;2023-01-30T15:37:57;4.55;;;1.98;;